sensor_id;sensor_type;location;lat;lon;timestamp;P1;durP1;ratioP1;P2;durP2;ratioP2
3036;SDS011;1528;52.550;13.408;2023-07-13T00:02:28;5.57;;;4.77;;
3036;SDS011;1528;52.550;13.408;2023-07-13T00:05:14;5.70;;;5.20;;
3036;SDS011;1528;52.550;13.408;2023-07-13T00:07:59;5.50;;;5.00;;
3036;SDS011;1528;52.550;13.408;2023-07-13T00:10:45;5.83;;;4.90;;
3036;SDS011;1528;52.550;13.408;2023-07-13T00:13:32;4.90;;;4.50;;
3036;SDS011;1528;52.550;13.408;2023-07-13T00:16:17;5.90;;;5.43;;
3036;SDS011;1528;52.550;13.408;2023-07-13T00:19:03;5.53;;;5.03;;
3036;SDS011;1528;52.550;13.408;2023-07-13T00:21:49;5.57;;;4.97;;
3036;SDS011;1528;52.550;13.408;2023-07-13T00:24:35;5.47;;;4.90;;
3036;SDS011;1528;52.550;13.408;2023-07-13T00:27:25;5.87;;;5.13;;
3036;SDS011;1528;52.550;13.408;2023-07-13T00:30:12;5.10;;;4.70;;
3036;SDS011;1528;52.550;13.408;2023-07-13T00:32:58;5.93;;;5.43;;
3036;SDS011;1528;52.550;13.408;2023-07-13T00:35:45;5.20;;;4.80;;
3036;SDS011;1528;52.550;13.408;2023-07-13T00:38:31;5.87;;;5.30;;
3036;SDS011;1528;52.550;13.408;2023-07-13T00:41:17;4.67;;;4.27;;
3036;SDS011;1528;52.550;13.408;2023-07-13T00:44:02;5.40;;;4.90;;
3036;SDS011;1528;52.550;13.408;2023-07-13T00:46:49;4.30;;;4.00;;
3036;SDS011;1528;52.550;13.408;2023-07-13T00:49:35;4.90;;;4.50;;
3036;SDS011;1528;52.550;13.408;2023-07-13T00:52:22;4.70;;;4.33;;
3036;SDS011;1528;52.550;13.408;2023-07-13T00:55:08;5.37;;;4.60;;
3036;SDS011;1528;52.550;13.408;2023-07-13T00:57:55;4.30;;;4.10;;
3036;SDS011;1528;52.550;13.408;2023-07-13T01:00:41;4.97;;;4.07;;
3036;SDS011;1528;52.550;13.408;2023-07-13T01:03:29;4.90;;;4.50;;
3036;SDS011;1528;52.550;13.408;2023-07-13T01:06:14;4.67;;;4.27;;
3036;SDS011;1528;52.550;13.408;2023-07-13T01:09:01;3.97;;;3.63;;
3036;SDS011;1528;52.550;13.408;2023-07-13T01:11:47;4.37;;;3.93;;
3036;SDS011;1528;52.550;13.408;2023-07-13T01:14:33;4.80;;;4.50;;
3036;SDS011;1528;52.550;13.408;2023-07-13T01:17:19;4.40;;;4.00;;
3036;SDS011;1528;52.550;13.408;2023-07-13T01:20:06;6.33;;;4.33;;
3036;SDS011;1528;52.550;13.408;2023-07-13T01:22:55;5.23;;;4.10;;
3036;SDS011;1528;52.550;13.408;2023-07-13T01:25:40;4.07;;;3.77;;
3036;SDS011;1528;52.550;13.408;2023-07-13T01:28:26;4.10;;;3.70;;
3036;SDS011;1528;52.550;13.408;2023-07-13T01:31:13;5.40;;;4.50;;
3036;SDS011;1528;52.550;13.408;2023-07-13T01:33:59;4.77;;;4.40;;
3036;SDS011;1528;52.550;13.408;2023-07-13T01:36:45;6.80;;;4.30;;
3036;SDS011;1528;52.550;13.408;2023-07-13T01:39:32;4.77;;;4.37;;
3036;SDS011;1528;52.550;13.408;2023-07-13T01:42:17;4.67;;;4.20;;
3036;SDS011;1528;52.550;13.408;2023-07-13T01:45:03;4.87;;;4.57;;
3036;SDS011;1528;52.550;13.408;2023-07-13T01:47:49;4.20;;;3.80;;
3036;SDS011;1528;52.550;13.408;2023-07-13T01:50:35;4.70;;;4.30;;
3036;SDS011;1528;52.550;13.408;2023-07-13T01:53:20;4.30;;;4.00;;
3036;SDS011;1528;52.550;13.408;2023-07-13T01:56:07;4.53;;;4.23;;
3036;SDS011;1528;52.550;13.408;2023-07-13T01:58:53;4.90;;;4.50;;
3036;SDS011;1528;52.550;13.408;2023-07-13T02:01:38;4.93;;;4.53;;
3036;SDS011;1528;52.550;13.408;2023-07-13T02:04:24;4.43;;;4.00;;
3036;SDS011;1528;52.550;13.408;2023-07-13T02:07:10;4.40;;;4.00;;
3036;SDS011;1528;52.550;13.408;2023-07-13T02:09:56;6.20;;;4.33;;
3036;SDS011;1528;52.550;13.408;2023-07-13T02:12:42;5.40;;;4.20;;
3036;SDS011;1528;52.550;13.408;2023-07-13T02:15:28;5.30;;;4.70;;
3036;SDS011;1528;52.550;13.408;2023-07-13T02:18:14;4.47;;;4.00;;
3036;SDS011;1528;52.550;13.408;2023-07-13T02:21:00;7.67;;;4.53;;
3036;SDS011;1528;52.550;13.408;2023-07-13T02:23:46;4.57;;;4.17;;
3036;SDS011;1528;52.550;13.408;2023-07-13T02:26:32;5.37;;;4.83;;
3036;SDS011;1528;52.550;13.408;2023-07-13T02:29:19;4.20;;;3.90;;
3036;SDS011;1528;52.550;13.408;2023-07-13T02:32:05;5.47;;;4.70;;
3036;SDS011;1528;52.550;13.408;2023-07-13T02:34:51;3.93;;;3.63;;
3036;SDS011;1528;52.550;13.408;2023-07-13T02:37:37;4.30;;;3.93;;
3036;SDS011;1528;52.550;13.408;2023-07-13T02:40:23;4.37;;;4.00;;
3036;SDS011;1528;52.550;13.408;2023-07-13T02:43:08;5.70;;;4.10;;
3036;SDS011;1528;52.550;13.408;2023-07-13T02:45:55;4.57;;;4.17;;
3036;SDS011;1528;52.550;13.408;2023-07-13T02:48:44;6.73;;;4.17;;
3036;SDS011;1528;52.550;13.408;2023-07-13T02:51:29;6.50;;;4.80;;
3036;SDS011;1528;52.550;13.408;2023-07-13T02:54:17;4.33;;;4.03;;
3036;SDS011;1528;52.550;13.408;2023-07-13T02:57:02;4.70;;;4.30;;
3036;SDS011;1528;52.550;13.408;2023-07-13T02:59:48;5.23;;;4.83;;
3036;SDS011;1528;52.550;13.408;2023-07-13T03:02:35;5.70;;;5.20;;
3036;SDS011;1528;52.550;13.408;2023-07-13T03:05:21;5.13;;;4.63;;
3036;SDS011;1528;52.550;13.408;2023-07-13T03:08:06;4.57;;;4.17;;
3036;SDS011;1528;52.550;13.408;2023-07-13T03:10:58;5.50;;;5.10;;
3036;SDS011;1528;52.550;13.408;2023-07-13T03:13:44;4.90;;;4.50;;
3036;SDS011;1528;52.550;13.408;2023-07-13T03:16:30;4.60;;;4.20;;
3036;SDS011;1528;52.550;13.408;2023-07-13T03:19:16;4.03;;;3.83;;
3036;SDS011;1528;52.550;13.408;2023-07-13T03:22:02;5.00;;;4.60;;
3036;SDS011;1528;52.550;13.408;2023-07-13T03:24:48;4.80;;;4.27;;
3036;SDS011;1528;52.550;13.408;2023-07-13T03:27:34;4.53;;;4.20;;
3036;SDS011;1528;52.550;13.408;2023-07-13T03:30:20;3.90;;;3.60;;
3036;SDS011;1528;52.550;13.408;2023-07-13T03:33:05;4.23;;;3.83;;
3036;SDS011;1528;52.550;13.408;2023-07-13T03:35:52;4.40;;;4.10;;
3036;SDS011;1528;52.550;13.408;2023-07-13T03:38:38;4.43;;;4.03;;
3036;SDS011;1528;52.550;13.408;2023-07-13T03:41:24;3.90;;;3.60;;
3036;SDS011;1528;52.550;13.408;2023-07-13T03:44:10;5.07;;;4.03;;
3036;SDS011;1528;52.550;13.408;2023-07-13T03:46:56;3.50;;;3.10;;
3036;SDS011;1528;52.550;13.408;2023-07-13T03:49:41;3.90;;;3.60;;
3036;SDS011;1528;52.550;13.408;2023-07-13T03:52:28;4.73;;;4.33;;
3036;SDS011;1528;52.550;13.408;2023-07-13T03:55:14;3.70;;;3.30;;
3036;SDS011;1528;52.550;13.408;2023-07-13T03:58:00;3.23;;;3.03;;
3036;SDS011;1528;52.550;13.408;2023-07-13T04:01:07;8.27;;;4.20;;
3036;SDS011;1528;52.550;13.408;2023-07-13T04:03:53;4.07;;;3.67;;
3036;SDS011;1528;52.550;13.408;2023-07-13T04:06:39;7.57;;;4.03;;
3036;SDS011;1528;52.550;13.408;2023-07-13T04:09:26;7.00;;;3.70;;
3036;SDS011;1528;52.550;13.408;2023-07-13T04:12:12;7.20;;;3.97;;
3036;SDS011;1528;52.550;13.408;2023-07-13T04:14:57;5.10;;;3.90;;
3036;SDS011;1528;52.550;13.408;2023-07-13T04:17:43;5.03;;;3.47;;
3036;SDS011;1528;52.550;13.408;2023-07-13T04:20:29;3.60;;;3.40;;
3036;SDS011;1528;52.550;13.408;2023-07-13T04:23:14;3.87;;;3.50;;
3036;SDS011;1528;52.550;13.408;2023-07-13T04:26:01;3.83;;;3.53;;
3036;SDS011;1528;52.550;13.408;2023-07-13T04:28:47;4.47;;;3.53;;
3036;SDS011;1528;52.550;13.408;2023-07-13T04:31:33;4.13;;;3.53;;
3036;SDS011;1528;52.550;13.408;2023-07-13T04:34:19;4.30;;;3.90;;
3036;SDS011;1528;52.550;13.408;2023-07-13T04:37:05;4.53;;;3.10;;
3036;SDS011;1528;52.550;13.408;2023-07-13T04:39:51;4.13;;;3.77;;
3036;SDS011;1528;52.550;13.408;2023-07-13T04:42:39;3.67;;;3.37;;
3036;SDS011;1528;52.550;13.408;2023-07-13T04:45:24;3.87;;;3.47;;
3036;SDS011;1528;52.550;13.408;2023-07-13T04:48:10;4.10;;;3.40;;
3036;SDS011;1528;52.550;13.408;2023-07-13T04:50:56;5.97;;;3.47;;
3036;SDS011;1528;52.550;13.408;2023-07-13T04:53:43;4.83;;;4.43;;
3036;SDS011;1528;52.550;13.408;2023-07-13T04:56:28;4.07;;;3.77;;
3036;SDS011;1528;52.550;13.408;2023-07-13T04:59:15;4.43;;;3.23;;
3036;SDS011;1528;52.550;13.408;2023-07-13T05:02:01;4.00;;;3.50;;
3036;SDS011;1528;52.550;13.408;2023-07-13T05:04:47;4.40;;;4.00;;
3036;SDS011;1528;52.550;13.408;2023-07-13T05:07:33;5.10;;;3.70;;
3036;SDS011;1528;52.550;13.408;2023-07-13T05:10:18;4.57;;;4.13;;
3036;SDS011;1528;52.550;13.408;2023-07-13T05:13:04;3.93;;;3.60;;
3036;SDS011;1528;52.550;13.408;2023-07-13T05:15:56;3.63;;;3.33;;
3036;SDS011;1528;52.550;13.408;2023-07-13T05:18:42;5.27;;;3.83;;
3036;SDS011;1528;52.550;13.408;2023-07-13T05:21:28;4.23;;;3.83;;
3036;SDS011;1528;52.550;13.408;2023-07-13T05:24:14;4.13;;;3.80;;
3036;SDS011;1528;52.550;13.408;2023-07-13T05:26:59;3.50;;;3.20;;
3036;SDS011;1528;52.550;13.408;2023-07-13T05:29:45;3.87;;;3.40;;
3036;SDS011;1528;52.550;13.408;2023-07-13T05:32:32;3.73;;;3.33;;
3036;SDS011;1528;52.550;13.408;2023-07-13T05:35:18;3.20;;;3.00;;
3036;SDS011;1528;52.550;13.408;2023-07-13T05:38:03;8.17;;;4.43;;
3036;SDS011;1528;52.550;13.408;2023-07-13T05:40:49;5.13;;;3.30;;
3036;SDS011;1528;52.550;13.408;2023-07-13T05:43:37;3.80;;;3.37;;
3036;SDS011;1528;52.550;13.408;2023-07-13T05:46:22;6.37;;;3.40;;
3036;SDS011;1528;52.550;13.408;2023-07-13T05:49:12;3.23;;;3.03;;
3036;SDS011;1528;52.550;13.408;2023-07-13T05:51:57;5.87;;;3.40;;
3036;SDS011;1528;52.550;13.408;2023-07-13T05:54:43;3.57;;;3.27;;
3036;SDS011;1528;52.550;13.408;2023-07-13T05:57:29;5.80;;;4.10;;
3036;SDS011;1528;52.550;13.408;2023-07-13T06:00:15;3.10;;;2.80;;
3036;SDS011;1528;52.550;13.408;2023-07-13T06:03:01;3.57;;;3.27;;
3036;SDS011;1528;52.550;13.408;2023-07-13T06:05:49;3.60;;;3.30;;
3036;SDS011;1528;52.550;13.408;2023-07-13T06:08:34;3.63;;;3.43;;
3036;SDS011;1528;52.550;13.408;2023-07-13T06:11:21;4.23;;;3.67;;
3036;SDS011;1528;52.550;13.408;2023-07-13T06:14:07;3.57;;;3.20;;
3036;SDS011;1528;52.550;13.408;2023-07-13T06:16:53;4.47;;;3.27;;
3036;SDS011;1528;52.550;13.408;2023-07-13T06:19:39;3.50;;;3.30;;
3036;SDS011;1528;52.550;13.408;2023-07-13T06:22:26;4.30;;;3.90;;
3036;SDS011;1528;52.550;13.408;2023-07-13T06:25:11;3.77;;;3.40;;
3036;SDS011;1528;52.550;13.408;2023-07-13T06:27:57;4.40;;;3.93;;
3036;SDS011;1528;52.550;13.408;2023-07-13T06:30:42;4.03;;;3.10;;
3036;SDS011;1528;52.550;13.408;2023-07-13T06:33:28;3.37;;;3.07;;
3036;SDS011;1528;52.550;13.408;2023-07-13T06:36:14;4.33;;;3.93;;
3036;SDS011;1528;52.550;13.408;2023-07-13T06:39:01;3.87;;;3.50;;
3036;SDS011;1528;52.550;13.408;2023-07-13T06:41:46;3.77;;;3.37;;
3036;SDS011;1528;52.550;13.408;2023-07-13T06:44:32;3.70;;;3.50;;
3036;SDS011;1528;52.550;13.408;2023-07-13T06:47:17;3.80;;;3.50;;
3036;SDS011;1528;52.550;13.408;2023-07-13T06:50:03;3.93;;;3.53;;
3036;SDS011;1528;52.550;13.408;2023-07-13T06:52:49;3.37;;;3.03;;
3036;SDS011;1528;52.550;13.408;2023-07-13T06:55:36;4.23;;;3.40;;
3036;SDS011;1528;52.550;13.408;2023-07-13T06:58:22;4.07;;;3.77;;
3036;SDS011;1528;52.550;13.408;2023-07-13T07:01:08;3.60;;;3.40;;
3036;SDS011;1528;52.550;13.408;2023-07-13T07:03:54;4.50;;;3.23;;
3036;SDS011;1528;52.550;13.408;2023-07-13T07:06:39;3.70;;;3.33;;
3036;SDS011;1528;52.550;13.408;2023-07-13T07:09:25;4.13;;;3.87;;
3036;SDS011;1528;52.550;13.408;2023-07-13T07:12:12;3.57;;;2.70;;
3036;SDS011;1528;52.550;13.408;2023-07-13T07:14:57;4.30;;;3.90;;
3036;SDS011;1528;52.550;13.408;2023-07-13T07:17:43;4.17;;;3.80;;
3036;SDS011;1528;52.550;13.408;2023-07-13T07:20:28;4.77;;;3.77;;
3036;SDS011;1528;52.550;13.408;2023-07-13T07:23:14;4.47;;;2.80;;
3036;SDS011;1528;52.550;13.408;2023-07-13T07:26:00;3.63;;;3.03;;
3036;SDS011;1528;52.550;13.408;2023-07-13T07:28:46;3.23;;;2.90;;
3036;SDS011;1528;52.550;13.408;2023-07-13T07:31:32;4.70;;;3.07;;
3036;SDS011;1528;52.550;13.408;2023-07-13T07:34:17;3.10;;;2.90;;
3036;SDS011;1528;52.550;13.408;2023-07-13T07:37:03;3.33;;;3.10;;
3036;SDS011;1528;52.550;13.408;2023-07-13T07:39:49;4.30;;;3.60;;
3036;SDS011;1528;52.550;13.408;2023-07-13T07:42:35;3.90;;;3.40;;
3036;SDS011;1528;52.550;13.408;2023-07-13T07:45:22;4.07;;;3.60;;
3036;SDS011;1528;52.550;13.408;2023-07-13T07:48:07;3.23;;;3.00;;
3036;SDS011;1528;52.550;13.408;2023-07-13T07:50:53;4.50;;;3.57;;
3036;SDS011;1528;52.550;13.408;2023-07-13T07:53:39;3.70;;;3.50;;
3036;SDS011;1528;52.550;13.408;2023-07-13T07:56:24;2.77;;;2.53;;
3036;SDS011;1528;52.550;13.408;2023-07-13T07:59:10;5.90;;;3.67;;
3036;SDS011;1528;52.550;13.408;2023-07-13T08:01:57;7.30;;;3.47;;
3036;SDS011;1528;52.550;13.408;2023-07-13T08:04:43;3.40;;;2.97;;
3036;SDS011;1528;52.550;13.408;2023-07-13T08:07:30;3.23;;;2.93;;
3036;SDS011;1528;52.550;13.408;2023-07-13T08:10:15;3.10;;;2.77;;
3036;SDS011;1528;52.550;13.408;2023-07-13T08:13:01;3.10;;;2.90;;
3036;SDS011;1528;52.550;13.408;2023-07-13T08:15:47;2.90;;;2.70;;
3036;SDS011;1528;52.550;13.408;2023-07-13T08:18:34;3.70;;;2.60;;
3036;SDS011;1528;52.550;13.408;2023-07-13T08:21:20;3.90;;;2.50;;
3036;SDS011;1528;52.550;13.408;2023-07-13T08:24:06;3.47;;;3.23;;
3036;SDS011;1528;52.550;13.408;2023-07-13T08:26:51;3.47;;;3.17;;
3036;SDS011;1528;52.550;13.408;2023-07-13T08:29:37;3.50;;;3.20;;
3036;SDS011;1528;52.550;13.408;2023-07-13T08:32:22;3.40;;;3.10;;
3036;SDS011;1528;52.550;13.408;2023-07-13T08:35:10;4.10;;;3.27;;
3036;SDS011;1528;52.550;13.408;2023-07-13T08:37:57;3.77;;;3.27;;
3036;SDS011;1528;52.550;13.408;2023-07-13T08:40:44;3.50;;;3.20;;
3036;SDS011;1528;52.550;13.408;2023-07-13T08:43:35;3.63;;;3.43;;
3036;SDS011;1528;52.550;13.408;2023-07-13T08:46:23;4.67;;;3.00;;
3036;SDS011;1528;52.550;13.408;2023-07-13T08:49:11;5.57;;;2.77;;
3036;SDS011;1528;52.550;13.408;2023-07-13T08:52:02;4.20;;;3.20;;
3036;SDS011;1528;52.550;13.408;2023-07-13T08:54:52;3.70;;;3.40;;
3036;SDS011;1528;52.550;13.408;2023-07-13T08:57:41;3.60;;;3.30;;
3036;SDS011;1528;52.550;13.408;2023-07-13T09:00:32;4.47;;;3.80;;
3036;SDS011;1528;52.550;13.408;2023-07-13T09:03:24;3.87;;;3.40;;
3036;SDS011;1528;52.550;13.408;2023-07-13T09:06:15;4.03;;;3.60;;
3036;SDS011;1528;52.550;13.408;2023-07-13T09:09:04;3.10;;;2.90;;
3036;SDS011;1528;52.550;13.408;2023-07-13T09:12:01;3.13;;;2.93;;
3036;SDS011;1528;52.550;13.408;2023-07-13T09:14:55;3.47;;;3.17;;
3036;SDS011;1528;52.550;13.408;2023-07-13T09:17:46;3.63;;;2.73;;
3036;SDS011;1528;52.550;13.408;2023-07-13T09:20:37;2.80;;;2.60;;
3036;SDS011;1528;52.550;13.408;2023-07-13T09:23:27;3.67;;;2.97;;
3036;SDS011;1528;52.550;13.408;2023-07-13T09:26:16;3.07;;;2.80;;
3036;SDS011;1528;52.550;13.408;2023-07-13T09:29:09;3.60;;;3.10;;
3036;SDS011;1528;52.550;13.408;2023-07-13T09:31:58;3.20;;;3.00;;
3036;SDS011;1528;52.550;13.408;2023-07-13T09:34:51;3.50;;;2.97;;
3036;SDS011;1528;52.550;13.408;2023-07-13T09:37:38;2.90;;;2.70;;
3036;SDS011;1528;52.550;13.408;2023-07-13T09:40:28;3.30;;;2.63;;
3036;SDS011;1528;52.550;13.408;2023-07-13T09:43:22;2.80;;;2.60;;
3036;SDS011;1528;52.550;13.408;2023-07-13T09:46:18;3.10;;;2.80;;
3036;SDS011;1528;52.550;13.408;2023-07-13T09:49:08;2.90;;;2.70;;
3036;SDS011;1528;52.550;13.408;2023-07-13T09:51:59;3.00;;;2.80;;
3036;SDS011;1528;52.550;13.408;2023-07-13T09:54:49;4.33;;;2.77;;
3036;SDS011;1528;52.550;13.408;2023-07-13T09:57:37;2.70;;;2.27;;
3036;SDS011;1528;52.550;13.408;2023-07-13T10:00:33;4.80;;;3.40;;
3036;SDS011;1528;52.550;13.408;2023-07-13T10:03:19;3.03;;;2.73;;
3036;SDS011;1528;52.550;13.408;2023-07-13T10:06:11;3.40;;;3.10;;
3036;SDS011;1528;52.550;13.408;2023-07-13T10:08:57;3.20;;;3.00;;
3036;SDS011;1528;52.550;13.408;2023-07-13T10:11:43;3.10;;;2.90;;
3036;SDS011;1528;52.550;13.408;2023-07-13T10:14:29;3.30;;;2.43;;
3036;SDS011;1528;52.550;13.408;2023-07-13T10:17:16;3.20;;;2.90;;
3036;SDS011;1528;52.550;13.408;2023-07-13T10:20:05;3.67;;;3.37;;
3036;SDS011;1528;52.550;13.408;2023-07-13T10:22:57;4.93;;;3.33;;
3036;SDS011;1528;52.550;13.408;2023-07-13T10:25:45;3.50;;;3.20;;
3036;SDS011;1528;52.550;13.408;2023-07-13T10:28:33;3.30;;;3.00;;
3036;SDS011;1528;52.550;13.408;2023-07-13T10:31:21;4.00;;;3.70;;
3036;SDS011;1528;52.550;13.408;2023-07-13T10:34:10;3.43;;;3.10;;
3036;SDS011;1528;52.550;13.408;2023-07-13T10:36:56;4.97;;;3.20;;
3036;SDS011;1528;52.550;13.408;2023-07-13T10:39:42;3.63;;;3.20;;
3036;SDS011;1528;52.550;13.408;2023-07-13T10:42:29;3.53;;;3.23;;
3036;SDS011;1528;52.550;13.408;2023-07-13T10:45:19;3.90;;;3.50;;
3036;SDS011;1528;52.550;13.408;2023-07-13T10:48:08;3.43;;;3.13;;
3036;SDS011;1528;52.550;13.408;2023-07-13T10:50:59;3.10;;;2.90;;
3036;SDS011;1528;52.550;13.408;2023-07-13T10:53:45;4.03;;;3.70;;
3036;SDS011;1528;52.550;13.408;2023-07-13T10:56:31;3.13;;;2.93;;
3036;SDS011;1528;52.550;13.408;2023-07-13T10:59:17;3.67;;;3.37;;
3036;SDS011;1528;52.550;13.408;2023-07-13T11:02:11;3.57;;;3.30;;
3036;SDS011;1528;52.550;13.408;2023-07-13T11:05:14;4.00;;;3.10;;
3036;SDS011;1528;52.550;13.408;2023-07-13T11:08:16;3.97;;;3.60;;
3036;SDS011;1528;52.550;13.408;2023-07-13T11:14:28;4.77;;;4.27;;
3036;SDS011;1528;52.550;13.408;2023-07-13T11:17:32;3.67;;;3.13;;
3036;SDS011;1528;52.550;13.408;2023-07-13T11:20:21;4.33;;;3.70;;
3036;SDS011;1528;52.550;13.408;2023-07-13T11:26:39;3.90;;;3.60;;
3036;SDS011;1528;52.550;13.408;2023-07-13T11:29:32;3.77;;;3.47;;
3036;SDS011;1528;52.550;13.408;2023-07-13T11:32:22;3.60;;;3.33;;
3036;SDS011;1528;52.550;13.408;2023-07-13T11:35:12;3.60;;;3.40;;
3036;SDS011;1528;52.550;13.408;2023-07-13T11:38:01;3.60;;;3.30;;
3036;SDS011;1528;52.550;13.408;2023-07-13T11:40:55;3.50;;;3.30;;
3036;SDS011;1528;52.550;13.408;2023-07-13T11:43:43;3.43;;;3.23;;
3036;SDS011;1528;52.550;13.408;2023-07-13T11:46:29;3.90;;;3.30;;
3036;SDS011;1528;52.550;13.408;2023-07-13T11:49:15;3.40;;;3.10;;
3036;SDS011;1528;52.550;13.408;2023-07-13T11:52:02;3.60;;;3.30;;
3036;SDS011;1528;52.550;13.408;2023-07-13T11:54:48;3.57;;;3.37;;
3036;SDS011;1528;52.550;13.408;2023-07-13T11:57:41;3.97;;;3.70;;
3036;SDS011;1528;52.550;13.408;2023-07-13T12:00:31;12.03;;;4.00;;
3036;SDS011;1528;52.550;13.408;2023-07-13T12:03:20;4.13;;;3.80;;
3036;SDS011;1528;52.550;13.408;2023-07-13T12:06:31;4.43;;;4.03;;
3036;SDS011;1528;52.550;13.408;2023-07-13T12:09:20;12.63;;;3.93;;
3036;SDS011;1528;52.550;13.408;2023-07-13T12:12:10;8.63;;;3.80;;
3036;SDS011;1528;52.550;13.408;2023-07-13T12:14:58;4.67;;;4.23;;
3036;SDS011;1528;52.550;13.408;2023-07-13T12:17:45;4.13;;;3.83;;
3036;SDS011;1528;52.550;13.408;2023-07-13T12:20:33;4.60;;;3.30;;
3036;SDS011;1528;52.550;13.408;2023-07-13T12:23:23;3.67;;;3.20;;
3036;SDS011;1528;52.550;13.408;2023-07-13T12:26:13;3.87;;;3.47;;
3036;SDS011;1528;52.550;13.408;2023-07-13T12:28:59;4.00;;;3.63;;
3036;SDS011;1528;52.550;13.408;2023-07-13T12:31:47;4.17;;;3.77;;
3036;SDS011;1528;52.550;13.408;2023-07-13T12:34:49;5.57;;;3.53;;
3036;SDS011;1528;52.550;13.408;2023-07-13T12:37:37;3.67;;;3.33;;
3036;SDS011;1528;52.550;13.408;2023-07-13T12:40:24;3.83;;;3.40;;
3036;SDS011;1528;52.550;13.408;2023-07-13T12:43:13;4.80;;;3.80;;
3036;SDS011;1528;52.550;13.408;2023-07-13T12:46:01;3.83;;;3.30;;
3036;SDS011;1528;52.550;13.408;2023-07-13T12:48:52;4.70;;;3.40;;
3036;SDS011;1528;52.550;13.408;2023-07-13T12:51:39;3.87;;;3.57;;
3036;SDS011;1528;52.550;13.408;2023-07-13T12:54:26;5.93;;;3.40;;
3036;SDS011;1528;52.550;13.408;2023-07-13T12:57:15;3.63;;;3.33;;
3036;SDS011;1528;52.550;13.408;2023-07-13T13:00:02;4.47;;;3.50;;
3036;SDS011;1528;52.550;13.408;2023-07-13T13:02:49;4.40;;;3.30;;
3036;SDS011;1528;52.550;13.408;2023-07-13T13:05:37;8.83;;;3.33;;
3036;SDS011;1528;52.550;13.408;2023-07-13T13:08:23;3.83;;;2.90;;
3036;SDS011;1528;52.550;13.408;2023-07-13T13:11:08;5.33;;;4.10;;
3036;SDS011;1528;52.550;13.408;2023-07-13T13:13:54;5.50;;;3.73;;
3036;SDS011;1528;52.550;13.408;2023-07-13T13:16:43;7.00;;;4.30;;
3036;SDS011;1528;52.550;13.408;2023-07-13T13:19:32;7.43;;;4.00;;
3036;SDS011;1528;52.550;13.408;2023-07-13T13:22:19;9.50;;;4.47;;
3036;SDS011;1528;52.550;13.408;2023-07-13T13:25:06;5.33;;;3.73;;
3036;SDS011;1528;52.550;13.408;2023-07-13T13:27:54;3.73;;;3.40;;
3036;SDS011;1528;52.550;13.408;2023-07-13T13:30:40;4.10;;;3.33;;
3036;SDS011;1528;52.550;13.408;2023-07-13T13:33:26;3.60;;;3.30;;
3036;SDS011;1528;52.550;13.408;2023-07-13T13:36:15;4.23;;;3.30;;
3036;SDS011;1528;52.550;13.408;2023-07-13T13:39:05;5.23;;;3.63;;
3036;SDS011;1528;52.550;13.408;2023-07-13T13:42:00;5.67;;;2.80;;
3036;SDS011;1528;52.550;13.408;2023-07-13T13:44:46;3.50;;;3.20;;
3036;SDS011;1528;52.550;13.408;2023-07-13T13:47:32;3.23;;;2.93;;
3036;SDS011;1528;52.550;13.408;2023-07-13T13:50:20;3.70;;;2.80;;
3036;SDS011;1528;52.550;13.408;2023-07-13T13:53:09;2.80;;;2.60;;
3036;SDS011;1528;52.550;13.408;2023-07-13T13:55:58;3.83;;;2.40;;
3036;SDS011;1528;52.550;13.408;2023-07-13T13:58:43;3.20;;;2.90;;
3036;SDS011;1528;52.550;13.408;2023-07-13T14:01:29;3.13;;;2.93;;
3036;SDS011;1528;52.550;13.408;2023-07-13T14:04:17;3.80;;;3.50;;
3036;SDS011;1528;52.550;13.408;2023-07-13T14:07:03;5.70;;;2.90;;
3036;SDS011;1528;52.550;13.408;2023-07-13T14:09:49;3.13;;;2.93;;
3036;SDS011;1528;52.550;13.408;2023-07-13T14:12:36;3.50;;;3.17;;
3036;SDS011;1528;52.550;13.408;2023-07-13T14:15:23;3.00;;;2.63;;
3036;SDS011;1528;52.550;13.408;2023-07-13T14:18:10;2.70;;;2.43;;
3036;SDS011;1528;52.550;13.408;2023-07-13T14:21:01;3.70;;;3.00;;
3036;SDS011;1528;52.550;13.408;2023-07-13T14:23:47;4.53;;;2.80;;
3036;SDS011;1528;52.550;13.408;2023-07-13T14:26:35;2.87;;;2.63;;
3036;SDS011;1528;52.550;13.408;2023-07-13T14:29:24;3.17;;;2.53;;
3036;SDS011;1528;52.550;13.408;2023-07-13T14:32:09;3.47;;;3.10;;
3036;SDS011;1528;52.550;13.408;2023-07-13T14:34:56;3.70;;;3.00;;
3036;SDS011;1528;52.550;13.408;2023-07-13T14:37:42;4.50;;;3.33;;
3036;SDS011;1528;52.550;13.408;2023-07-13T14:40:31;2.83;;;2.63;;
3036;SDS011;1528;52.550;13.408;2023-07-13T14:43:17;3.30;;;2.70;;
3036;SDS011;1528;52.550;13.408;2023-07-13T14:46:04;3.13;;;2.83;;
3036;SDS011;1528;52.550;13.408;2023-07-13T14:48:50;2.97;;;2.77;;
3036;SDS011;1528;52.550;13.408;2023-07-13T14:51:35;6.40;;;3.17;;
3036;SDS011;1528;52.550;13.408;2023-07-13T14:54:21;3.83;;;2.70;;
3036;SDS011;1528;52.550;13.408;2023-07-13T14:57:08;3.13;;;2.83;;
3036;SDS011;1528;52.550;13.408;2023-07-13T14:59:55;3.13;;;2.80;;
3036;SDS011;1528;52.550;13.408;2023-07-13T15:02:42;3.50;;;3.20;;
3036;SDS011;1528;52.550;13.408;2023-07-13T15:05:31;6.40;;;3.07;;
3036;SDS011;1528;52.550;13.408;2023-07-13T15:08:18;2.90;;;2.60;;
3036;SDS011;1528;52.550;13.408;2023-07-13T15:11:03;2.40;;;2.20;;
3036;SDS011;1528;52.550;13.408;2023-07-13T15:13:49;3.80;;;2.73;;
3036;SDS011;1528;52.550;13.408;2023-07-13T15:16:35;3.00;;;2.70;;
3036;SDS011;1528;52.550;13.408;2023-07-13T15:19:22;2.70;;;2.50;;
3036;SDS011;1528;52.550;13.408;2023-07-13T15:22:09;2.80;;;2.60;;
3036;SDS011;1528;52.550;13.408;2023-07-13T15:24:55;3.17;;;2.87;;
3036;SDS011;1528;52.550;13.408;2023-07-13T15:27:41;4.87;;;2.50;;
3036;SDS011;1528;52.550;13.408;2023-07-13T15:30:27;3.23;;;2.60;;
3036;SDS011;1528;52.550;13.408;2023-07-13T15:33:25;3.50;;;2.33;;
3036;SDS011;1528;52.550;13.408;2023-07-13T15:36:13;4.10;;;2.50;;
3036;SDS011;1528;52.550;13.408;2023-07-13T15:39:00;8.60;;;2.73;;
3036;SDS011;1528;52.550;13.408;2023-07-13T15:41:46;5.93;;;3.47;;
3036;SDS011;1528;52.550;13.408;2023-07-13T15:44:32;2.93;;;2.23;;
3036;SDS011;1528;52.550;13.408;2023-07-13T15:47:18;6.00;;;2.60;;
3036;SDS011;1528;52.550;13.408;2023-07-13T15:50:04;3.73;;;2.20;;
3036;SDS011;1528;52.550;13.408;2023-07-13T15:52:52;4.60;;;2.20;;
3036;SDS011;1528;52.550;13.408;2023-07-13T15:55:40;2.80;;;2.50;;
3036;SDS011;1528;52.550;13.408;2023-07-13T15:58:26;2.60;;;2.30;;
3036;SDS011;1528;52.550;13.408;2023-07-13T16:01:12;3.53;;;2.87;;
3036;SDS011;1528;52.550;13.408;2023-07-13T16:03:58;3.57;;;2.40;;
3036;SDS011;1528;52.550;13.408;2023-07-13T16:06:43;4.50;;;2.20;;
3036;SDS011;1528;52.550;13.408;2023-07-13T16:09:31;3.53;;;3.17;;
3036;SDS011;1528;52.550;13.408;2023-07-13T16:12:16;2.27;;;2.10;;
3036;SDS011;1528;52.550;13.408;2023-07-13T16:15:02;4.97;;;2.40;;
3036;SDS011;1528;52.550;13.408;2023-07-13T16:17:49;2.90;;;2.53;;
3036;SDS011;1528;52.550;13.408;2023-07-13T16:20:35;2.90;;;2.30;;
3036;SDS011;1528;52.550;13.408;2023-07-13T16:23:21;2.83;;;1.90;;
3036;SDS011;1528;52.550;13.408;2023-07-13T16:26:13;2.70;;;2.40;;
3036;SDS011;1528;52.550;13.408;2023-07-13T16:29:24;2.33;;;2.13;;
3036;SDS011;1528;52.550;13.408;2023-07-13T16:32:11;2.43;;;2.17;;
3036;SDS011;1528;52.550;13.408;2023-07-13T16:34:58;2.57;;;2.37;;
3036;SDS011;1528;52.550;13.408;2023-07-13T16:37:44;2.70;;;2.40;;
3036;SDS011;1528;52.550;13.408;2023-07-13T16:40:30;2.77;;;2.17;;
3036;SDS011;1528;52.550;13.408;2023-07-13T16:43:19;3.17;;;2.87;;
3036;SDS011;1528;52.550;13.408;2023-07-13T16:46:07;2.60;;;2.40;;
3036;SDS011;1528;52.550;13.408;2023-07-13T16:48:55;2.67;;;2.47;;
3036;SDS011;1528;52.550;13.408;2023-07-13T16:51:41;3.83;;;3.53;;
3036;SDS011;1528;52.550;13.408;2023-07-13T16:54:26;3.50;;;2.83;;
3036;SDS011;1528;52.550;13.408;2023-07-13T16:57:15;2.80;;;2.50;;
3036;SDS011;1528;52.550;13.408;2023-07-13T17:00:08;3.03;;;2.50;;
3036;SDS011;1528;52.550;13.408;2023-07-13T17:03:05;2.77;;;2.57;;
3036;SDS011;1528;52.550;13.408;2023-07-13T17:05:50;2.70;;;2.50;;
3036;SDS011;1528;52.550;13.408;2023-07-13T17:08:36;4.27;;;2.40;;
3036;SDS011;1528;52.550;13.408;2023-07-13T17:11:22;2.70;;;2.50;;